METAR Data
IDs: Format: Raw Decoded Include TAF

Data at: 1549 UTC 03 Jul 2020

METAR for:KSDF (Louisville Intl, KY, US)
Text:KSDF 031456Z 10004KT 10SM FEW060 BKN250 31/19 A3002 RMK AO2 SLP160 T03060189 50001
Temperature: 30.6°C ( 87°F)
Dewpoint: 18.9°C ( 66°F) [RH = 50%]
Pressure (altimeter):30.02 inches Hg (1016.7 mb) [Sea level pressure: 1016.0 mb]
Winds:from the E (100 degrees) at 5 MPH (4 knots; 2.1 m/s)
Visibility:10 or more sm (16+ km)
Ceiling:25000 feet AGL
Clouds: few clouds at 6000 feet AGL, broken clouds at 25000 feet AGL